createdAt,value
2019-04-22T00:02:03.923Z,10.73
2019-04-22T00:04:49.742Z,12.03
2019-04-22T00:07:28.518Z,11.90
2019-04-22T00:10:04.855Z,12.67
2019-04-22T00:12:37.340Z,11.57
2019-04-22T00:15:01.094Z,11.70
2019-04-22T00:20:11.567Z,12.87
2019-04-22T00:22:42.781Z,12.37
2019-04-22T00:25:14.381Z,13.93
2019-04-22T00:27:51.142Z,12.90
2019-04-22T00:30:18.128Z,13.70
2019-04-22T00:32:45.077Z,13.00
2019-04-22T00:35:19.817Z,13.33
2019-04-22T00:37:58.110Z,15.43
2019-04-22T00:40:32.276Z,15.00
2019-04-22T00:42:53.540Z,15.13
2019-04-22T00:45:31.195Z,14.67
2019-04-22T00:48:00.711Z,15.60
2019-04-22T00:50:33.085Z,15.03
2019-04-22T00:53:08.854Z,15.00
2019-04-22T00:55:39.166Z,14.43
2019-04-22T00:58:08.022Z,14.70
2019-04-22T01:00:44.419Z,13.70
2019-04-22T01:03:19.660Z,13.10
2019-04-22T01:05:51.470Z,13.60
2019-04-22T01:08:23.790Z,13.40
2019-04-22T01:10:59.033Z,13.67
2019-04-22T01:13:20.048Z,13.27
2019-04-22T01:16:01.204Z,12.80
2019-04-22T01:18:23.922Z,13.00
2019-04-22T01:21:16.425Z,13.03
2019-04-22T01:23:28.080Z,12.33
2019-04-22T01:25:49.366Z,12.97
2019-04-22T01:28:25.360Z,12.23
2019-04-22T01:30:50.969Z,11.30
2019-04-22T01:33:21.538Z,12.20
2019-04-22T01:36:01.477Z,13.00
2019-04-22T01:38:43.367Z,11.20
2019-04-22T01:41:16.504Z,12.80
2019-04-22T01:43:51.890Z,12.90
2019-04-22T01:46:16.911Z,12.87
2019-04-22T01:48:57.389Z,12.63
2019-04-22T01:51:28.693Z,12.60
2019-04-22T01:54:00.466Z,12.43
2019-04-22T01:56:30.327Z,12.87
2019-04-22T01:58:49.935Z,12.70
2019-04-22T02:01:35.789Z,12.03
2019-04-22T02:04:00.917Z,12.50
2019-04-22T02:06:34.898Z,12.27
2019-04-22T02:09:09.496Z,13.03
2019-04-22T02:11:40.630Z,12.27
2019-04-22T02:14:04.587Z,12.07
2019-04-22T02:19:15.687Z,12.77
2019-04-22T02:21:44.014Z,11.70
2019-04-22T02:24:15.974Z,13.07
2019-04-22T02:26:40.263Z,11.87
2019-04-22T02:29:17.154Z,12.90
2019-04-22T02:31:55.405Z,12.77
2019-04-22T02:39:23.677Z,11.43
2019-04-22T02:41:54.916Z,11.57
2019-04-22T02:44:30.469Z,12.40
2019-04-22T02:49:29.180Z,12.20
2019-04-22T02:52:07.644Z,11.60
2019-04-22T02:57:13.158Z,12.07
2019-04-22T02:59:41.277Z,12.27
2019-04-22T03:02:14.392Z,11.90
2019-04-22T03:04:45.382Z,11.90
2019-04-22T03:07:12.760Z,12.00
2019-04-22T03:09:47.804Z,10.83
2019-04-22T03:17:20.631Z,11.00
2019-04-22T03:22:28.684Z,10.97
2019-04-22T03:25:24.122Z,11.57
2019-04-22T03:27:27.664Z,10.97
2019-04-22T03:42:55.939Z,10.07
2019-04-22T03:45:26.366Z,9.10
2019-04-22T03:50:25.470Z,10.17
2019-04-22T03:53:05.908Z,9.50
2019-04-22T04:03:07.495Z,9.97
2019-04-22T04:05:49.679Z,10.00
2019-04-22T04:10:46.067Z,9.87
2019-04-22T04:13:20.951Z,10.10
2019-04-22T04:15:34.655Z,10.03
2019-04-22T04:18:26.555Z,9.47
2019-04-22T04:23:30.987Z,9.87
2019-04-22T04:28:43.370Z,10.33
2019-04-22T04:31:09.876Z,10.33
2019-04-22T04:33:36.205Z,11.20
2019-04-22T04:36:02.601Z,10.60
2019-04-22T04:38:42.981Z,10.07
2019-04-22T04:41:06.465Z,10.77
2019-04-22T04:48:55.694Z,11.27
2019-04-22T04:51:16.282Z,10.47
2019-04-22T04:53:41.475Z,11.90
2019-04-22T04:59:02.384Z,11.57
2019-04-22T05:06:21.643Z,12.70
2019-04-22T05:11:42.993Z,12.17
2019-04-22T05:13:57.711Z,11.47
2019-04-22T05:21:22.335Z,12.93
2019-04-22T05:24:06.591Z,11.83
2019-04-22T05:26:32.966Z,12.90
2019-04-22T05:29:05.534Z,13.20
2019-04-22T05:31:38.660Z,12.37
2019-04-22T05:34:05.531Z,12.80
2019-04-22T05:36:34.441Z,12.40
2019-04-22T05:39:09.142Z,12.40
2019-04-22T05:44:10.772Z,12.30
2019-04-22T05:46:45.685Z,10.90
2019-04-22T05:49:22.525Z,10.63
2019-04-22T05:51:43.664Z,8.77
2019-04-22T05:56:40.919Z,9.40
2019-04-22T05:59:17.636Z,9.13
2019-04-22T06:04:23.254Z,9.87
2019-04-22T06:06:54.241Z,10.87
2019-04-22T06:09:30.159Z,10.63
2019-04-22T06:11:55.635Z,14.33
2019-04-22T06:14:30.808Z,13.17
2019-04-22T06:17:08.311Z,12.30
2019-04-22T06:19:38.016Z,12.70
2019-04-22T06:22:19.859Z,11.37
2019-04-22T06:24:42.399Z,9.30
2019-04-22T06:27:18.748Z,8.87
2019-04-22T06:29:41.448Z,9.40
2019-04-22T06:32:28.102Z,11.10
2019-04-22T06:34:48.659Z,9.83
2019-04-22T06:37:20.711Z,10.27
2019-04-22T06:40:11.021Z,9.67
2019-04-22T06:42:21.948Z,8.23
2019-04-22T06:44:52.636Z,7.13
2019-04-22T06:47:40.084Z,6.50
2019-04-22T06:49:55.582Z,6.90
2019-04-22T06:52:22.398Z,6.60
2019-04-22T06:54:59.558Z,7.33
2019-04-22T06:57:30.485Z,6.07
2019-04-22T07:00:08.735Z,8.17
2019-04-22T07:02:46.473Z,7.67
2019-04-22T07:05:07.778Z,6.67
2019-04-22T07:07:39.972Z,7.50
2019-04-22T07:10:23.653Z,7.17
2019-04-22T07:12:41.768Z,7.33
2019-04-22T07:15:23.228Z,6.60
2019-04-22T07:17:50.884Z,6.73
2019-04-22T07:20:18.011Z,6.30
2019-04-22T07:22:45.588Z,6.90
2019-04-22T07:25:15.865Z,6.37
2019-04-22T07:27:52.636Z,7.20
2019-04-22T07:30:25.329Z,6.20
2019-04-22T07:35:28.946Z,6.47
2019-04-22T07:37:53.913Z,6.87
2019-04-22T07:40:37.369Z,6.40
2019-04-22T07:43:08.756Z,5.93
2019-04-22T07:45:36.095Z,6.20
2019-04-22T07:48:21.915Z,5.87
2019-04-22T07:50:50.683Z,5.60
2019-04-22T07:53:10.695Z,5.60
2019-04-22T07:55:39.758Z,6.80
2019-04-22T08:00:53.348Z,6.17
2019-04-22T08:03:22.092Z,5.87
2019-04-22T08:06:02.569Z,6.10
2019-04-22T08:10:57.780Z,6.47
2019-04-22T08:13:26.958Z,7.13
2019-04-22T08:15:58.245Z,6.70
2019-04-22T08:18:28.965Z,6.20
2019-04-22T08:20:58.369Z,6.43
2019-04-22T08:23:31.367Z,5.83
2019-04-22T08:26:03.429Z,5.47
2019-04-22T08:28:37.878Z,5.63
2019-04-22T08:31:10.861Z,5.50
2019-04-22T08:33:39.906Z,5.13
2019-04-22T08:36:18.016Z,5.50
2019-04-22T08:38:46.949Z,4.57
2019-04-22T08:41:31.862Z,6.00
2019-04-22T08:48:55.853Z,6.47
2019-04-22T08:51:24.963Z,5.60
2019-04-22T08:54:09.928Z,5.40
2019-04-22T08:56:35.125Z,5.20
2019-04-22T09:01:41.940Z,4.40
2019-04-22T09:04:03.336Z,4.60
2019-04-22T09:06:49.488Z,5.53
2019-04-22T09:09:09.670Z,10.43
2019-04-22T09:11:44.931Z,26.93
2019-04-22T09:14:15.678Z,20.47
2019-04-22T09:16:42.769Z,4.57
2019-04-22T09:19:12.300Z,4.47
2019-04-22T09:21:54.413Z,4.50
2019-04-22T09:24:16.825Z,4.80
2019-04-22T09:26:47.676Z,4.07
2019-04-22T09:31:57.007Z,4.30
2019-04-22T09:34:23.451Z,3.63
2019-04-22T09:36:58.235Z,3.53
2019-04-22T09:39:31.301Z,3.40
2019-04-22T09:41:59.796Z,4.10
2019-04-22T09:44:36.199Z,3.53
2019-04-22T09:47:09.619Z,3.86
2019-04-22T09:49:44.757Z,3.57
2019-04-22T09:52:10.136Z,3.13
2019-04-22T09:54:49.564Z,3.40
2019-04-22T09:57:16.945Z,3.10
2019-04-22T09:59:43.670Z,3.60
2019-04-22T10:04:48.364Z,3.47
2019-04-22T10:07:21.036Z,3.30
2019-04-22T10:12:29.980Z,2.87
2019-04-22T10:17:25.866Z,4.13
2019-04-22T10:19:57.900Z,2.67
2019-04-22T10:22:36.653Z,3.00
2019-04-22T10:27:32.700Z,3.03
2019-04-22T10:30:21.994Z,2.67
2019-04-22T10:32:39.045Z,2.10
2019-04-22T10:35:05.042Z,2.10
2019-04-22T10:37:32.244Z,2.50
2019-04-22T10:40:05.779Z,2.40
2019-04-22T10:42:43.442Z,2.10
2019-04-22T10:45:14.667Z,2.30
2019-04-22T10:47:45.852Z,1.90
2019-04-22T10:50:16.651Z,2.40
2019-04-22T10:52:47.702Z,2.00
2019-04-22T10:55:19.263Z,2.30
2019-04-22T10:57:50.596Z,1.90
2019-04-22T11:00:21.856Z,2.30
2019-04-22T11:02:51.896Z,2.10
2019-04-22T11:05:22.030Z,2.20
2019-04-22T11:07:57.925Z,2.00
2019-04-22T11:10:41.228Z,2.03
2019-04-22T11:12:56.770Z,1.90
2019-04-22T11:15:26.826Z,2.30
2019-04-22T11:17:57.693Z,2.30
2019-04-22T11:20:27.604Z,2.10
2019-04-22T11:22:58.503Z,2.27
2019-04-22T11:25:29.837Z,2.40
2019-04-22T11:28:00.106Z,1.90
2019-04-22T11:30:30.339Z,2.03
2019-04-22T11:33:00.487Z,2.20
2019-04-22T11:35:31.948Z,2.17
2019-04-22T11:38:04.461Z,1.80
2019-04-22T11:40:39.895Z,2.00
2019-04-22T11:43:07.971Z,2.23
2019-04-22T11:45:39.438Z,2.00
2019-04-22T11:48:11.047Z,2.10
2019-04-22T11:50:42.081Z,1.93
2019-04-22T11:53:13.141Z,1.80
2019-04-22T11:55:44.595Z,2.10
2019-04-22T11:58:14.985Z,2.30
2019-04-22T12:00:45.161Z,2.30
2019-04-22T12:03:16.707Z,2.20
2019-04-22T12:05:48.058Z,2.40
2019-04-22T12:08:18.165Z,2.20
2019-04-22T12:10:54.236Z,1.93
2019-04-22T12:13:20.019Z,1.93
2019-04-22T12:15:51.177Z,2.00
2019-04-22T12:18:22.895Z,2.10
2019-04-22T12:20:53.216Z,1.83
2019-04-22T12:23:23.268Z,2.00
2019-04-22T12:25:59.940Z,2.27
2019-04-22T12:28:24.949Z,2.00
2019-04-22T12:30:55.334Z,2.30
2019-04-22T12:33:25.525Z,2.20
2019-04-22T12:35:56.742Z,2.20
2019-04-22T12:38:27.414Z,2.30
2019-04-22T12:41:04.149Z,1.50
2019-04-22T12:43:29.838Z,2.00
2019-04-22T12:46:00.759Z,1.90
2019-04-22T12:48:31.025Z,1.60
2019-04-22T12:51:01.082Z,1.40
2019-04-22T12:53:31.931Z,1.63
2019-04-22T12:56:02.958Z,1.93
2019-04-22T12:58:33.864Z,1.80
2019-04-22T13:01:04.971Z,1.60
2019-04-22T13:03:36.139Z,1.70
2019-04-22T13:06:07.691Z,2.10
2019-04-22T13:08:38.166Z,1.53
2019-04-22T13:11:12.359Z,1.80
2019-04-22T13:13:40.919Z,1.50
2019-04-22T13:16:10.991Z,1.80
2019-04-22T13:18:49.270Z,1.70
2019-04-22T13:21:13.097Z,1.60
2019-04-22T13:23:44.430Z,1.67
2019-04-22T13:26:15.086Z,1.87
2019-04-22T13:28:45.210Z,1.70
2019-04-22T13:31:16.067Z,2.00
2019-04-22T13:33:49.930Z,1.97
2019-04-22T13:36:22.049Z,1.87
2019-04-22T13:38:51.297Z,1.67
2019-04-22T13:41:31.772Z,1.30
2019-04-22T13:43:53.860Z,25.00
2019-04-22T13:46:24.080Z,34.93
2019-04-22T13:49:26.999Z,2.37
2019-04-22T13:52:04.163Z,1.50
2019-04-22T13:56:50.556Z,1.80
2019-04-22T13:59:11.536Z,1.50
2019-04-22T14:01:52.417Z,1.90
2019-04-22T14:04:24.800Z,1.70
2019-04-22T14:06:54.802Z,2.00
2019-04-22T14:09:26.331Z,1.57
2019-04-22T14:12:01.933Z,1.93
2019-04-22T14:14:28.175Z,1.93
2019-04-22T14:16:58.814Z,1.50
2019-04-22T14:19:29.863Z,1.87
2019-04-22T14:21:59.871Z,1.73
2019-04-22T14:24:30.055Z,1.67
2019-04-22T14:27:19.261Z,1.83
2019-04-22T14:29:31.775Z,1.93
2019-04-22T14:32:09.251Z,1.80
2019-04-22T14:34:34.256Z,1.67
2019-04-22T14:37:05.488Z,1.70
2019-04-22T14:39:35.866Z,1.60
2019-04-22T14:44:15.606Z,1.70
2019-04-22T14:47:34.820Z,2.40
2019-04-22T14:50:07.648Z,1.90
2019-04-22T14:52:38.093Z,2.10
2019-04-22T14:54:57.032Z,2.30
2019-04-22T14:57:16.918Z,2.37
2019-04-22T14:59:48.273Z,2.23
2019-04-22T15:02:19.591Z,2.33
2019-04-22T15:04:50.067Z,2.20
2019-04-22T15:07:21.092Z,2.33
2019-04-22T15:09:52.274Z,2.17
2019-04-22T15:12:31.020Z,2.33
2019-04-22T15:14:55.502Z,2.23
2019-04-22T15:17:27.184Z,3.10
2019-04-22T15:19:58.765Z,3.03
2019-04-22T15:22:28.706Z,2.50
2019-04-22T15:24:58.679Z,3.17
2019-04-22T15:27:30.860Z,2.80
2019-04-22T15:30:01.325Z,2.57
2019-04-22T15:32:33.529Z,2.60
2019-04-22T15:35:05.006Z,2.73
2019-04-22T15:37:35.176Z,2.30
2019-04-22T15:40:09.005Z,2.60
2019-04-22T15:42:42.837Z,2.93
2019-04-22T15:45:14.112Z,2.87
2019-04-22T15:47:43.968Z,2.80
2019-04-22T15:50:16.088Z,3.20
2019-04-22T15:52:51.303Z,3.37
2019-04-22T15:55:18.732Z,3.70
2019-04-22T15:57:49.883Z,3.63
2019-04-22T16:00:33.150Z,3.50
2019-04-22T16:02:52.012Z,3.60
2019-04-22T16:05:22.483Z,3.40
2019-04-22T16:07:52.972Z,3.50
2019-04-22T16:10:23.983Z,4.27
2019-04-22T16:13:05.415Z,3.70
2019-04-22T16:15:28.652Z,3.87
2019-04-22T16:18:01.592Z,4.10
2019-04-22T16:20:30.355Z,3.90
2019-04-22T16:23:10.933Z,3.87
2019-04-22T16:25:43.027Z,4.20
2019-04-22T16:28:13.240Z,4.23
2019-04-22T16:30:43.657Z,3.30
2019-04-22T16:33:15.188Z,3.20
2019-04-22T16:35:46.667Z,3.83
2019-04-22T16:38:16.965Z,3.90
2019-04-22T16:40:48.470Z,3.60
2019-04-22T16:43:19.471Z,3.80
2019-04-22T16:45:51.696Z,4.67
2019-04-22T16:48:22.006Z,4.13
2019-04-22T16:50:52.727Z,4.20
2019-04-22T16:53:25.148Z,3.80
2019-04-22T16:55:55.227Z,4.10
2019-04-22T16:58:25.289Z,3.80
2019-04-22T17:00:56.499Z,3.80
2019-04-22T17:03:31.075Z,4.17
2019-04-22T17:06:19.483Z,4.10
2019-04-22T17:08:50.711Z,3.97
2019-04-22T17:11:22.051Z,4.40
2019-04-22T17:13:53.026Z,3.47
2019-04-22T17:16:24.344Z,3.90
2019-04-22T17:18:54.497Z,3.67
2019-04-22T17:21:25.675Z,4.10
2019-04-22T17:23:55.993Z,4.37
2019-04-22T17:26:26.487Z,4.30
2019-04-22T17:28:59.599Z,4.13
2019-04-22T17:31:29.297Z,3.90
2019-04-22T17:33:59.306Z,4.67
2019-04-22T17:36:29.838Z,4.43
2019-04-22T17:39:15.894Z,5.00
2019-04-22T17:41:53.991Z,4.90
2019-04-22T17:44:41.300Z,4.97
2019-04-22T17:46:58.824Z,5.20
2019-04-22T17:49:50.307Z,4.90
2019-04-22T17:54:50.271Z,5.63
2019-04-22T17:57:25.355Z,5.63
2019-04-22T18:00:08.787Z,5.60
2019-04-22T18:02:25.057Z,5.50
2019-04-22T18:04:46.823Z,6.23
2019-04-22T18:07:35.814Z,6.27
2019-04-22T18:12:38.268Z,8.13
2019-04-22T18:15:17.778Z,5.90
2019-04-22T18:17:41.322Z,7.13
2019-04-22T18:20:04.735Z,6.27
2019-04-22T18:22:34.717Z,6.80
2019-04-22T18:25:04.935Z,6.87
2019-04-22T18:30:11.463Z,6.37
2019-04-22T18:32:46.734Z,7.40
2019-04-22T18:35:14.208Z,6.97
2019-04-22T18:37:54.801Z,6.83
2019-04-22T18:40:24.519Z,6.90
2019-04-22T18:42:59.671Z,6.90
2019-04-22T18:45:43.789Z,6.83
2019-04-22T18:47:54.927Z,7.40
2019-04-22T18:50:56.371Z,7.00
2019-04-22T18:53:27.343Z,6.63
2019-04-22T18:55:55.512Z,7.03
2019-04-22T18:58:27.529Z,7.23
2019-04-22T19:00:48.256Z,7.67
2019-04-22T19:03:25.315Z,7.83
2019-04-22T19:06:27.390Z,8.40
2019-04-22T19:08:44.807Z,7.97
2019-04-22T19:11:16.657Z,8.00
2019-04-22T19:16:34.535Z,8.77
2019-04-22T19:18:56.465Z,8.30
2019-04-22T19:21:21.807Z,8.50
2019-04-22T19:23:54.022Z,9.57
2019-04-22T19:26:40.954Z,10.97
2019-04-22T19:29:13.385Z,9.37
2019-04-22T19:31:31.333Z,9.67
2019-04-22T19:34:03.292Z,9.90
2019-04-22T19:36:36.293Z,9.93
2019-04-22T19:38:58.753Z,10.53
2019-04-22T19:41:57.987Z,10.27
2019-04-22T19:44:10.249Z,10.77
2019-04-22T19:46:42.481Z,11.03
2019-04-22T19:49:22.086Z,10.97
2019-04-22T19:51:53.953Z,11.50
2019-04-22T19:54:14.054Z,11.13
2019-04-22T19:56:38.680Z,12.00
2019-04-22T19:59:19.659Z,12.23
2019-04-22T20:01:55.359Z,13.53
2019-04-22T20:04:43.025Z,13.63
2019-04-22T20:07:06.306Z,13.63
2019-04-22T20:09:35.135Z,14.10
2019-04-22T20:12:04.388Z,14.27
2019-04-22T20:14:43.577Z,13.83
2019-04-22T20:17:00.658Z,14.63
2019-04-22T20:19:45.620Z,15.77
2019-04-22T20:22:12.836Z,13.97
2019-04-22T20:24:28.523Z,14.03
2019-04-22T20:27:18.927Z,13.40
2019-04-22T20:29:47.793Z,14.53
2019-04-22T20:32:18.374Z,14.93
2019-04-22T20:35:02.660Z,15.10
2019-04-22T20:37:33.275Z,14.70
2019-04-22T20:39:53.090Z,14.03
2019-04-22T20:42:38.684Z,14.47
2019-04-22T20:45:01.862Z,14.60
2019-04-22T20:47:21.743Z,15.23
2019-04-22T20:50:02.110Z,14.33
2019-04-22T20:52:44.776Z,15.07
2019-04-22T20:55:00.058Z,14.10
2019-04-22T20:57:38.286Z,14.97
2019-04-22T21:00:05.396Z,14.53
2019-04-22T21:02:32.639Z,15.87
2019-04-22T21:04:59.078Z,14.97
2019-04-22T21:07:37.077Z,15.17
2019-04-22T21:10:08.993Z,15.80
2019-04-22T21:12:36.262Z,16.17
2019-04-22T21:15:25.511Z,14.93
2019-04-22T21:17:45.819Z,13.93
2019-04-22T21:20:30.432Z,16.27
2019-04-22T21:22:58.837Z,15.87
2019-04-22T21:25:17.786Z,16.20
2019-04-22T21:27:56.840Z,15.90
2019-04-22T21:30:29.226Z,16.23
2019-04-22T21:32:58.006Z,16.13
2019-04-22T21:35:55.027Z,15.90
2019-04-22T21:38:11.316Z,15.60
2019-04-22T21:40:39.754Z,16.87
2019-04-22T21:43:16.232Z,16.27
2019-04-22T21:45:37.673Z,16.23
2019-04-22T21:50:57.437Z,17.03
2019-04-22T21:53:22.796Z,16.50
2019-04-22T21:56:01.368Z,17.13
2019-04-22T21:58:26.119Z,16.63
2019-04-22T22:01:21.890Z,17.27
2019-04-22T22:03:55.298Z,15.90
2019-04-22T22:06:17.278Z,17.50
2019-04-22T22:08:57.951Z,16.80
2019-04-22T22:11:27.819Z,15.97
2019-04-22T22:13:59.485Z,16.23
2019-04-22T22:16:25.107Z,15.97
2019-04-22T22:19:02.267Z,16.17
2019-04-22T22:21:43.895Z,16.90
2019-04-22T22:24:10.061Z,16.07
2019-04-22T22:26:42.568Z,15.57
2019-04-22T22:31:47.068Z,15.80
2019-04-22T22:34:13.947Z,15.60
2019-04-22T22:36:36.381Z,15.63
2019-04-22T22:39:09.983Z,15.63
2019-04-22T22:41:26.110Z,15.37
2019-04-22T22:44:03.216Z,14.60
2019-04-22T22:46:37.392Z,16.27
2019-04-22T22:49:22.961Z,14.57
2019-04-22T22:51:53.224Z,14.30
2019-04-22T22:54:23.669Z,14.63
2019-04-22T22:57:17.821Z,13.90
2019-04-22T22:59:29.936Z,13.87
2019-04-22T23:01:55.697Z,13.77
2019-04-22T23:04:35.592Z,12.97
2019-04-22T23:07:06.806Z,14.20
2019-04-22T23:09:30.752Z,14.40
2019-04-22T23:12:31.666Z,13.80
2019-04-22T23:14:38.193Z,13.60
2019-04-22T23:16:55.106Z,15.23
2019-04-22T23:19:19.896Z,14.37
2019-04-22T23:21:54.428Z,15.50
2019-04-22T23:24:48.161Z,14.60
2019-04-22T23:27:42.104Z,14.77
2019-04-22T23:30:21.515Z,14.07
2019-04-22T23:33:03.341Z,15.30
2019-04-22T23:35:36.702Z,14.23
2019-04-22T23:38:13.000Z,15.03
2019-04-22T23:40:44.445Z,14.67
2019-04-22T23:43:23.747Z,15.97
2019-04-22T23:45:56.657Z,14.23
2019-04-22T23:48:20.737Z,15.17
2019-04-22T23:50:57.301Z,15.03
2019-04-22T23:53:47.945Z,14.37
2019-04-22T23:56:12.596Z,13.97
